sensor_id;sensor_type;location;lat;lon;timestamp;temperature;humidity
19031;DHT22;9648;51.130;13.978;2023-05-10T00:00:30;11.00;99.90
19031;DHT22;9648;51.130;13.978;2023-05-10T00:02:57;11.00;99.90
19031;DHT22;9648;51.130;13.978;2023-05-10T00:05:24;11.00;99.90
19031;DHT22;9648;51.130;13.978;2023-05-10T00:07:51;11.00;99.90
19031;DHT22;9648;51.130;13.978;2023-05-10T00:10:19;11.00;99.90
19031;DHT22;9648;51.130;13.978;2023-05-10T00:12:46;11.00;99.90
19031;DHT22;9648;51.130;13.978;2023-05-10T00:15:12;10.90;99.90
19031;DHT22;9648;51.130;13.978;2023-05-10T00:17:39;10.90;99.90
19031;DHT22;9648;51.130;13.978;2023-05-10T00:20:07;10.90;99.90
19031;DHT22;9648;51.130;13.978;2023-05-10T00:22:34;10.80;99.90
19031;DHT22;9648;51.130;13.978;2023-05-10T00:25:00;10.80;99.90
19031;DHT22;9648;51.130;13.978;2023-05-10T00:27:28;10.70;99.90
19031;DHT22;9648;51.130;13.978;2023-05-10T00:29:55;10.70;99.90
19031;DHT22;9648;51.130;13.978;2023-05-10T00:32:22;10.70;99.90
19031;DHT22;9648;51.130;13.978;2023-05-10T00:34:49;10.70;99.90
19031;DHT22;9648;51.130;13.978;2023-05-10T00:37:16;10.70;99.90
19031;DHT22;9648;51.130;13.978;2023-05-10T00:39:43;10.70;99.90
19031;DHT22;9648;51.130;13.978;2023-05-10T00:42:09;10.70;99.90
19031;DHT22;9648;51.130;13.978;2023-05-10T00:44:38;10.70;99.90
19031;DHT22;9648;51.130;13.978;2023-05-10T00:47:05;10.70;99.90
19031;DHT22;9648;51.130;13.978;2023-05-10T00:49:32;10.60;99.90
19031;DHT22;9648;51.130;13.978;2023-05-10T00:51:59;10.60;99.90
19031;DHT22;9648;51.130;13.978;2023-05-10T00:54:27;10.50;99.90
19031;DHT22;9648;51.130;13.978;2023-05-10T00:56:54;10.50;99.90
19031;DHT22;9648;51.130;13.978;2023-05-10T00:59:22;10.50;99.90
19031;DHT22;9648;51.130;13.978;2023-05-10T01:01:52;10.50;99.90
19031;DHT22;9648;51.130;13.978;2023-05-10T01:04:19;10.50;99.90
19031;DHT22;9648;51.130;13.978;2023-05-10T01:06:51;10.50;99.90
19031;DHT22;9648;51.130;13.978;2023-05-10T01:09:18;10.50;99.90
19031;DHT22;9648;51.130;13.978;2023-05-10T01:11:45;10.40;99.90
19031;DHT22;9648;51.130;13.978;2023-05-10T01:14:12;10.40;99.90
19031;DHT22;9648;51.130;13.978;2023-05-10T01:16:40;10.40;99.90
19031;DHT22;9648;51.130;13.978;2023-05-10T01:19:14;10.30;99.90
19031;DHT22;9648;51.130;13.978;2023-05-10T01:21:46;10.30;99.90
19031;DHT22;9648;51.130;13.978;2023-05-10T01:27:24;10.30;99.90
19031;DHT22;9648;51.130;13.978;2023-05-10T01:30:32;10.40;99.90
19031;DHT22;9648;51.130;13.978;2023-05-10T01:33:10;10.30;99.90
19031;DHT22;9648;51.130;13.978;2023-05-10T01:35:41;10.30;99.90
19031;DHT22;9648;51.130;13.978;2023-05-10T01:38:16;10.30;99.90
19031;DHT22;9648;51.130;13.978;2023-05-10T01:40:52;10.20;99.90
19031;DHT22;9648;51.130;13.978;2023-05-10T01:43:28;10.20;99.90
19031;DHT22;9648;51.130;13.978;2023-05-10T01:46:00;10.20;99.90
19031;DHT22;9648;51.130;13.978;2023-05-10T01:48:36;10.20;99.90
19031;DHT22;9648;51.130;13.978;2023-05-10T01:51:05;10.20;99.90
19031;DHT22;9648;51.130;13.978;2023-05-10T01:53:33;10.20;99.90
19031;DHT22;9648;51.130;13.978;2023-05-10T01:56:03;10.20;99.90
19031;DHT22;9648;51.130;13.978;2023-05-10T01:58:31;10.20;99.90
19031;DHT22;9648;51.130;13.978;2023-05-10T02:01:01;10.20;99.90
19031;DHT22;9648;51.130;13.978;2023-05-10T02:03:28;10.20;99.90
19031;DHT22;9648;51.130;13.978;2023-05-10T02:05:59;10.10;99.90
19031;DHT22;9648;51.130;13.978;2023-05-10T02:08:26;10.10;99.90
19031;DHT22;9648;51.130;13.978;2023-05-10T02:10:55;10.10;99.90
19031;DHT22;9648;51.130;13.978;2023-05-10T02:13:24;10.00;99.90
19031;DHT22;9648;51.130;13.978;2023-05-10T02:15:53;10.00;99.90
19031;DHT22;9648;51.130;13.978;2023-05-10T02:18:22;10.00;99.90
19031;DHT22;9648;51.130;13.978;2023-05-10T02:20:50;10.00;99.90
19031;DHT22;9648;51.130;13.978;2023-05-10T02:23:20;10.10;99.90
19031;DHT22;9648;51.130;13.978;2023-05-10T02:25:48;10.00;99.90
19031;DHT22;9648;51.130;13.978;2023-05-10T02:28:17;10.00;99.90
19031;DHT22;9648;51.130;13.978;2023-05-10T02:30:45;10.00;99.90
19031;DHT22;9648;51.130;13.978;2023-05-10T02:33:14;10.00;99.90
19031;DHT22;9648;51.130;13.978;2023-05-10T02:35:41;10.00;99.90
19031;DHT22;9648;51.130;13.978;2023-05-10T02:38:09;9.90;99.90
19031;DHT22;9648;51.130;13.978;2023-05-10T02:40:40;9.90;99.90
19031;DHT22;9648;51.130;13.978;2023-05-10T02:43:10;9.90;99.90
19031;DHT22;9648;51.130;13.978;2023-05-10T02:45:39;9.80;99.90
19031;DHT22;9648;51.130;13.978;2023-05-10T02:48:07;9.80;99.90
19031;DHT22;9648;51.130;13.978;2023-05-10T02:50:37;9.80;99.90
19031;DHT22;9648;51.130;13.978;2023-05-10T02:53:09;9.80;99.90
19031;DHT22;9648;51.130;13.978;2023-05-10T02:55:40;9.80;99.90
19031;DHT22;9648;51.130;13.978;2023-05-10T02:58:08;9.80;99.90
19031;DHT22;9648;51.130;13.978;2023-05-10T03:00:35;9.80;99.90
19031;DHT22;9648;51.130;13.978;2023-05-10T03:03:02;9.70;99.90
19031;DHT22;9648;51.130;13.978;2023-05-10T03:05:29;9.70;99.90
19031;DHT22;9648;51.130;13.978;2023-05-10T03:07:57;9.60;99.90
19031;DHT22;9648;51.130;13.978;2023-05-10T03:10:27;9.60;99.90
19031;DHT22;9648;51.130;13.978;2023-05-10T03:13:06;9.70;99.90
19031;DHT22;9648;51.130;13.978;2023-05-10T03:15:40;9.70;99.90
19031;DHT22;9648;51.130;13.978;2023-05-10T03:18:15;9.70;99.90
19031;DHT22;9648;51.130;13.978;2023-05-10T03:20:47;9.60;99.90
19031;DHT22;9648;51.130;13.978;2023-05-10T03:23:21;9.60;99.90
19031;DHT22;9648;51.130;13.978;2023-05-10T03:25:50;9.70;99.90
19031;DHT22;9648;51.130;13.978;2023-05-10T03:28:20;9.60;99.90
19031;DHT22;9648;51.130;13.978;2023-05-10T03:30:48;9.70;99.90
19031;DHT22;9648;51.130;13.978;2023-05-10T03:33:16;9.60;99.90
19031;DHT22;9648;51.130;13.978;2023-05-10T03:35:42;9.60;99.90
19031;DHT22;9648;51.130;13.978;2023-05-10T03:38:11;9.60;99.90
19031;DHT22;9648;51.130;13.978;2023-05-10T03:40:38;9.60;99.90
19031;DHT22;9648;51.130;13.978;2023-05-10T03:43:05;9.60;99.90
19031;DHT22;9648;51.130;13.978;2023-05-10T03:45:33;9.60;99.90
19031;DHT22;9648;51.130;13.978;2023-05-10T03:48:01;9.60;99.90
19031;DHT22;9648;51.130;13.978;2023-05-10T03:50:28;9.60;99.90
19031;DHT22;9648;51.130;13.978;2023-05-10T03:52:55;9.60;99.90
19031;DHT22;9648;51.130;13.978;2023-05-10T03:55:22;9.50;99.90
19031;DHT22;9648;51.130;13.978;2023-05-10T03:57:49;9.50;99.90
19031;DHT22;9648;51.130;13.978;2023-05-10T04:00:16;9.50;99.90
19031;DHT22;9648;51.130;13.978;2023-05-10T04:02:44;9.60;99.90
19031;DHT22;9648;51.130;13.978;2023-05-10T04:05:11;9.60;99.90
19031;DHT22;9648;51.130;13.978;2023-05-10T04:07:38;9.60;99.90
19031;DHT22;9648;51.130;13.978;2023-05-10T04:10:05;9.60;99.90
19031;DHT22;9648;51.130;13.978;2023-05-10T04:12:33;9.60;99.90
19031;DHT22;9648;51.130;13.978;2023-05-10T04:14:59;9.70;99.90
19031;DHT22;9648;51.130;13.978;2023-05-10T04:17:26;9.70;99.90
19031;DHT22;9648;51.130;13.978;2023-05-10T04:19:55;9.80;99.90
19031;DHT22;9648;51.130;13.978;2023-05-10T04:22:22;9.80;99.90
19031;DHT22;9648;51.130;13.978;2023-05-10T04:24:49;9.90;99.90
19031;DHT22;9648;51.130;13.978;2023-05-10T04:27:16;9.90;99.90
19031;DHT22;9648;51.130;13.978;2023-05-10T04:29:43;10.00;99.90
19031;DHT22;9648;51.130;13.978;2023-05-10T04:32:09;10.00;99.90
19031;DHT22;9648;51.130;13.978;2023-05-10T04:34:36;10.10;99.90
19031;DHT22;9648;51.130;13.978;2023-05-10T04:37:04;10.10;99.90
19031;DHT22;9648;51.130;13.978;2023-05-10T04:39:33;10.20;99.90
19031;DHT22;9648;51.130;13.978;2023-05-10T04:42:01;10.30;99.90
19031;DHT22;9648;51.130;13.978;2023-05-10T04:44:34;10.30;99.90
19031;DHT22;9648;51.130;13.978;2023-05-10T04:47:01;10.40;99.90
19031;DHT22;9648;51.130;13.978;2023-05-10T04:49:29;10.40;99.90
19031;DHT22;9648;51.130;13.978;2023-05-10T04:51:56;10.40;99.90
19031;DHT22;9648;51.130;13.978;2023-05-10T04:54:24;10.40;99.90
19031;DHT22;9648;51.130;13.978;2023-05-10T04:56:51;10.40;99.90
19031;DHT22;9648;51.130;13.978;2023-05-10T04:59:18;10.40;99.90
19031;DHT22;9648;51.130;13.978;2023-05-10T05:01:45;10.40;99.90
19031;DHT22;9648;51.130;13.978;2023-05-10T05:04:11;10.50;99.90
19031;DHT22;9648;51.130;13.978;2023-05-10T05:06:40;10.50;99.90
19031;DHT22;9648;51.130;13.978;2023-05-10T05:09:06;10.60;99.90
19031;DHT22;9648;51.130;13.978;2023-05-10T05:11:34;10.60;99.90
19031;DHT22;9648;51.130;13.978;2023-05-10T05:14:01;10.60;99.90
19031;DHT22;9648;51.130;13.978;2023-05-10T05:16:30;10.70;99.90
19031;DHT22;9648;51.130;13.978;2023-05-10T05:18:57;10.80;99.90
19031;DHT22;9648;51.130;13.978;2023-05-10T05:21:24;10.80;99.90
19031;DHT22;9648;51.130;13.978;2023-05-10T05:23:52;10.80;99.90
19031;DHT22;9648;51.130;13.978;2023-05-10T05:26:19;10.90;99.90
19031;DHT22;9648;51.130;13.978;2023-05-10T05:28:47;11.00;99.90
19031;DHT22;9648;51.130;13.978;2023-05-10T05:31:14;11.00;99.90
19031;DHT22;9648;51.130;13.978;2023-05-10T05:33:41;11.00;99.90
19031;DHT22;9648;51.130;13.978;2023-05-10T05:36:08;11.10;99.90
19031;DHT22;9648;51.130;13.978;2023-05-10T05:38:35;11.10;99.90
19031;DHT22;9648;51.130;13.978;2023-05-10T05:41:02;11.10;99.90
19031;DHT22;9648;51.130;13.978;2023-05-10T05:43:29;11.20;99.90
19031;DHT22;9648;51.130;13.978;2023-05-10T05:45:57;11.30;99.90
19031;DHT22;9648;51.130;13.978;2023-05-10T05:48:27;11.40;99.90
19031;DHT22;9648;51.130;13.978;2023-05-10T05:50:55;11.50;99.90
19031;DHT22;9648;51.130;13.978;2023-05-10T05:53:23;11.60;99.90
19031;DHT22;9648;51.130;13.978;2023-05-10T05:55:53;11.70;99.90
19031;DHT22;9648;51.130;13.978;2023-05-10T05:58:20;11.70;99.90
19031;DHT22;9648;51.130;13.978;2023-05-10T06:00:47;11.80;99.90
19031;DHT22;9648;51.130;13.978;2023-05-10T06:03:16;11.90;99.90
19031;DHT22;9648;51.130;13.978;2023-05-10T06:05:43;11.80;99.90
19031;DHT22;9648;51.130;13.978;2023-05-10T06:08:10;11.90;99.90
19031;DHT22;9648;51.130;13.978;2023-05-10T06:10:36;12.00;99.90
19031;DHT22;9648;51.130;13.978;2023-05-10T06:13:03;12.00;99.90
19031;DHT22;9648;51.130;13.978;2023-05-10T06:15:30;12.10;99.90
19031;DHT22;9648;51.130;13.978;2023-05-10T06:17:58;12.10;99.90
19031;DHT22;9648;51.130;13.978;2023-05-10T06:20:26;12.20;99.90
19031;DHT22;9648;51.130;13.978;2023-05-10T06:22:53;12.30;99.90
19031;DHT22;9648;51.130;13.978;2023-05-10T06:25:20;12.30;99.90
19031;DHT22;9648;51.130;13.978;2023-05-10T06:27:47;12.40;99.90
19031;DHT22;9648;51.130;13.978;2023-05-10T06:30:14;12.50;99.90
19031;DHT22;9648;51.130;13.978;2023-05-10T06:32:41;12.50;99.90
19031;DHT22;9648;51.130;13.978;2023-05-10T06:35:09;12.60;99.90
19031;DHT22;9648;51.130;13.978;2023-05-10T06:37:37;12.70;99.90
19031;DHT22;9648;51.130;13.978;2023-05-10T06:40:06;12.80;99.90
19031;DHT22;9648;51.130;13.978;2023-05-10T06:42:33;12.80;99.90
19031;DHT22;9648;51.130;13.978;2023-05-10T06:45:00;13.00;99.90
19031;DHT22;9648;51.130;13.978;2023-05-10T06:47:26;13.00;99.90
19031;DHT22;9648;51.130;13.978;2023-05-10T06:49:53;13.00;99.90
19031;DHT22;9648;51.130;13.978;2023-05-10T06:52:21;13.10;99.90
19031;DHT22;9648;51.130;13.978;2023-05-10T06:54:50;13.20;99.90
19031;DHT22;9648;51.130;13.978;2023-05-10T06:57:17;13.30;99.90
19031;DHT22;9648;51.130;13.978;2023-05-10T06:59:44;13.30;99.90
19031;DHT22;9648;51.130;13.978;2023-05-10T07:02:11;13.40;99.90
19031;DHT22;9648;51.130;13.978;2023-05-10T07:04:38;13.50;99.90
19031;DHT22;9648;51.130;13.978;2023-05-10T07:07:05;13.50;99.90
19031;DHT22;9648;51.130;13.978;2023-05-10T07:09:31;13.60;99.90
19031;DHT22;9648;51.130;13.978;2023-05-10T07:12:00;13.60;99.90
19031;DHT22;9648;51.130;13.978;2023-05-10T07:14:27;13.70;99.90
19031;DHT22;9648;51.130;13.978;2023-05-10T07:16:54;13.70;99.90
19031;DHT22;9648;51.130;13.978;2023-05-10T07:19:21;13.80;99.90
19031;DHT22;9648;51.130;13.978;2023-05-10T07:21:48;13.90;99.90
19031;DHT22;9648;51.130;13.978;2023-05-10T07:24:16;14.00;99.90
19031;DHT22;9648;51.130;13.978;2023-05-10T07:26:43;14.00;99.90
19031;DHT22;9648;51.130;13.978;2023-05-10T07:29:11;14.10;99.90
19031;DHT22;9648;51.130;13.978;2023-05-10T07:31:38;14.10;99.90
19031;DHT22;9648;51.130;13.978;2023-05-10T07:34:07;14.20;99.90
19031;DHT22;9648;51.130;13.978;2023-05-10T07:36:34;14.30;99.90
19031;DHT22;9648;51.130;13.978;2023-05-10T07:39:01;14.40;99.90
19031;DHT22;9648;51.130;13.978;2023-05-10T07:41:27;14.50;99.90
19031;DHT22;9648;51.130;13.978;2023-05-10T07:43:54;14.60;99.90
19031;DHT22;9648;51.130;13.978;2023-05-10T07:46:22;14.70;99.90
19031;DHT22;9648;51.130;13.978;2023-05-10T07:48:49;14.70;99.90
19031;DHT22;9648;51.130;13.978;2023-05-10T07:51:16;14.80;99.90
19031;DHT22;9648;51.130;13.978;2023-05-10T07:53:43;14.90;99.90
19031;DHT22;9648;51.130;13.978;2023-05-10T07:56:24;15.00;99.90
19031;DHT22;9648;51.130;13.978;2023-05-10T07:58:53;15.00;99.90
19031;DHT22;9648;51.130;13.978;2023-05-10T08:01:22;15.10;99.90
19031;DHT22;9648;51.130;13.978;2023-05-10T08:03:49;15.30;99.90
19031;DHT22;9648;51.130;13.978;2023-05-10T08:06:17;15.40;99.90
19031;DHT22;9648;51.130;13.978;2023-05-10T08:08:45;15.50;99.90
19031;DHT22;9648;51.130;13.978;2023-05-10T08:11:15;15.60;99.90
19031;DHT22;9648;51.130;13.978;2023-05-10T08:13:42;15.70;99.90
19031;DHT22;9648;51.130;13.978;2023-05-10T08:16:08;15.70;99.90
19031;DHT22;9648;51.130;13.978;2023-05-10T08:18:37;15.80;99.90
19031;DHT22;9648;51.130;13.978;2023-05-10T08:21:04;15.90;99.90
19031;DHT22;9648;51.130;13.978;2023-05-10T08:23:33;16.00;99.90
19031;DHT22;9648;51.130;13.978;2023-05-10T08:26:00;16.00;99.90
19031;DHT22;9648;51.130;13.978;2023-05-10T08:28:27;16.10;99.90
19031;DHT22;9648;51.130;13.978;2023-05-10T08:30:54;16.20;99.90
19031;DHT22;9648;51.130;13.978;2023-05-10T08:33:21;16.30;99.90
19031;DHT22;9648;51.130;13.978;2023-05-10T08:35:49;16.40;99.90
19031;DHT22;9648;51.130;13.978;2023-05-10T08:38:16;16.50;99.90
19031;DHT22;9648;51.130;13.978;2023-05-10T08:40:43;16.60;99.90
19031;DHT22;9648;51.130;13.978;2023-05-10T08:43:12;16.60;99.90
19031;DHT22;9648;51.130;13.978;2023-05-10T08:45:42;16.70;99.90
19031;DHT22;9648;51.130;13.978;2023-05-10T08:48:11;16.80;99.90
19031;DHT22;9648;51.130;13.978;2023-05-10T08:50:39;16.80;99.90
19031;DHT22;9648;51.130;13.978;2023-05-10T08:53:10;16.90;99.90
19031;DHT22;9648;51.130;13.978;2023-05-10T08:55:37;17.10;99.90
19031;DHT22;9648;51.130;13.978;2023-05-10T08:58:06;17.20;99.90
19031;DHT22;9648;51.130;13.978;2023-05-10T09:00:33;17.30;99.90
19031;DHT22;9648;51.130;13.978;2023-05-10T09:03:01;17.40;99.90
19031;DHT22;9648;51.130;13.978;2023-05-10T09:05:28;17.40;99.90
19031;DHT22;9648;51.130;13.978;2023-05-10T09:07:55;17.40;99.90
19031;DHT22;9648;51.130;13.978;2023-05-10T09:10:25;17.50;99.90
19031;DHT22;9648;51.130;13.978;2023-05-10T09:12:53;17.50;99.60
19031;DHT22;9648;51.130;13.978;2023-05-10T09:15:22;17.60;99.90
19031;DHT22;9648;51.130;13.978;2023-05-10T09:17:50;17.70;99.80
19031;DHT22;9648;51.130;13.978;2023-05-10T09:20:17;17.80;99.90
19031;DHT22;9648;51.130;13.978;2023-05-10T09:22:44;17.90;99.90
19031;DHT22;9648;51.130;13.978;2023-05-10T09:25:12;18.00;98.50
19031;DHT22;9648;51.130;13.978;2023-05-10T09:27:44;18.00;97.30
19031;DHT22;9648;51.130;13.978;2023-05-10T09:30:15;18.10;98.30
19031;DHT22;9648;51.130;13.978;2023-05-10T09:32:44;18.10;99.80
19031;DHT22;9648;51.130;13.978;2023-05-10T09:35:12;18.20;99.90
19031;DHT22;9648;51.130;13.978;2023-05-10T09:37:40;18.30;99.10
19031;DHT22;9648;51.130;13.978;2023-05-10T09:40:11;18.30;99.60
19031;DHT22;9648;51.130;13.978;2023-05-10T09:42:39;18.40;98.70
19031;DHT22;9648;51.130;13.978;2023-05-10T09:45:09;18.50;99.10
19031;DHT22;9648;51.130;13.978;2023-05-10T09:47:36;18.60;99.20
19031;DHT22;9648;51.130;13.978;2023-05-10T09:50:03;18.70;98.00
19031;DHT22;9648;51.130;13.978;2023-05-10T09:52:46;18.70;95.80
19031;DHT22;9648;51.130;13.978;2023-05-10T09:55:13;18.80;98.00
19031;DHT22;9648;51.130;13.978;2023-05-10T09:57:40;19.00;97.10
19031;DHT22;9648;51.130;13.978;2023-05-10T10:00:09;19.00;97.10
19031;DHT22;9648;51.130;13.978;2023-05-10T10:02:38;19.00;96.30
19031;DHT22;9648;51.130;13.978;2023-05-10T10:05:06;19.10;98.40
19031;DHT22;9648;51.130;13.978;2023-05-10T10:07:34;19.20;96.10
19031;DHT22;9648;51.130;13.978;2023-05-10T10:10:01;19.30;92.70
19031;DHT22;9648;51.130;13.978;2023-05-10T10:12:30;19.30;93.40
19031;DHT22;9648;51.130;13.978;2023-05-10T10:14:59;19.30;94.40
19031;DHT22;9648;51.130;13.978;2023-05-10T10:17:28;19.40;95.50
19031;DHT22;9648;51.130;13.978;2023-05-10T10:19:57;19.30;91.00
19031;DHT22;9648;51.130;13.978;2023-05-10T10:22:27;19.30;91.00
19031;DHT22;9648;51.130;13.978;2023-05-10T10:24:54;19.50;94.10
19031;DHT22;9648;51.130;13.978;2023-05-10T10:27:26;19.60;98.40
19031;DHT22;9648;51.130;13.978;2023-05-10T10:30:02;19.80;93.20
19031;DHT22;9648;51.130;13.978;2023-05-10T10:32:37;19.80;86.80
19031;DHT22;9648;51.130;13.978;2023-05-10T10:35:09;19.80;82.00
19031;DHT22;9648;51.130;13.978;2023-05-10T10:37:47;19.90;89.80
19031;DHT22;9648;51.130;13.978;2023-05-10T10:40:24;19.90;93.10
19031;DHT22;9648;51.130;13.978;2023-05-10T10:42:52;20.00;94.00
19031;DHT22;9648;51.130;13.978;2023-05-10T10:45:22;20.10;88.80
19031;DHT22;9648;51.130;13.978;2023-05-10T10:48:21;20.20;88.30
19031;DHT22;9648;51.130;13.978;2023-05-10T10:50:56;20.30;92.30
19031;DHT22;9648;51.130;13.978;2023-05-10T10:53:26;20.40;86.50
19031;DHT22;9648;51.130;13.978;2023-05-10T10:56:04;20.40;83.10
19031;DHT22;9648;51.130;13.978;2023-05-10T10:58:33;20.50;87.10
19031;DHT22;9648;51.130;13.978;2023-05-10T11:01:11;20.60;82.00
19031;DHT22;9648;51.130;13.978;2023-05-10T11:03:40;20.70;88.20
19031;DHT22;9648;51.130;13.978;2023-05-10T11:06:07;20.70;81.00
19031;DHT22;9648;51.130;13.978;2023-05-10T11:08:40;20.60;72.40
19031;DHT22;9648;51.130;13.978;2023-05-10T11:11:08;20.70;75.60
19031;DHT22;9648;51.130;13.978;2023-05-10T11:13:39;20.60;80.10
19031;DHT22;9648;51.130;13.978;2023-05-10T11:16:15;20.70;76.10
19031;DHT22;9648;51.130;13.978;2023-05-10T11:18:57;20.70;71.90
19031;DHT22;9648;51.130;13.978;2023-05-10T11:21:24;20.60;73.40
19031;DHT22;9648;51.130;13.978;2023-05-10T11:23:53;20.60;72.90
19031;DHT22;9648;51.130;13.978;2023-05-10T11:26:22;20.60;77.30
19031;DHT22;9648;51.130;13.978;2023-05-10T11:28:52;20.70;76.00
19031;DHT22;9648;51.130;13.978;2023-05-10T11:31:20;20.80;81.70
19031;DHT22;9648;51.130;13.978;2023-05-10T11:33:50;20.90;78.20
19031;DHT22;9648;51.130;13.978;2023-05-10T11:36:19;20.90;78.70
19031;DHT22;9648;51.130;13.978;2023-05-10T11:38:46;21.10;76.40
19031;DHT22;9648;51.130;13.978;2023-05-10T11:41:16;21.10;71.80
19031;DHT22;9648;51.130;13.978;2023-05-10T11:43:43;21.20;71.50
19031;DHT22;9648;51.130;13.978;2023-05-10T11:46:13;21.30;72.80
19031;DHT22;9648;51.130;13.978;2023-05-10T11:48:41;21.30;71.90
19031;DHT22;9648;51.130;13.978;2023-05-10T11:51:09;21.40;71.30
19031;DHT22;9648;51.130;13.978;2023-05-10T11:53:38;21.40;68.70
19031;DHT22;9648;51.130;13.978;2023-05-10T11:56:05;21.50;67.90
19031;DHT22;9648;51.130;13.978;2023-05-10T11:58:33;21.40;71.40
19031;DHT22;9648;51.130;13.978;2023-05-10T12:01:00;21.50;73.30
19031;DHT22;9648;51.130;13.978;2023-05-10T12:03:27;21.60;71.70
19031;DHT22;9648;51.130;13.978;2023-05-10T12:05:55;21.70;74.90
19031;DHT22;9648;51.130;13.978;2023-05-10T12:08:24;21.70;68.50
19031;DHT22;9648;51.130;13.978;2023-05-10T12:10:53;21.70;68.00
19031;DHT22;9648;51.130;13.978;2023-05-10T12:13:30;21.70;66.70
19031;DHT22;9648;51.130;13.978;2023-05-10T12:15:57;21.70;70.10
19031;DHT22;9648;51.130;13.978;2023-05-10T12:18:25;21.80;69.10
19031;DHT22;9648;51.130;13.978;2023-05-10T12:20:52;21.60;64.40
19031;DHT22;9648;51.130;13.978;2023-05-10T12:23:20;21.50;66.90
19031;DHT22;9648;51.130;13.978;2023-05-10T12:25:47;21.60;69.20
19031;DHT22;9648;51.130;13.978;2023-05-10T12:28:19;21.40;64.90
19031;DHT22;9648;51.130;13.978;2023-05-10T12:30:46;21.40;67.30
19031;DHT22;9648;51.130;13.978;2023-05-10T12:33:14;21.50;67.50
19031;DHT22;9648;51.130;13.978;2023-05-10T12:35:47;21.60;67.90
19031;DHT22;9648;51.130;13.978;2023-05-10T12:38:25;21.50;63.90
19031;DHT22;9648;51.130;13.978;2023-05-10T12:40:52;21.60;66.20
19031;DHT22;9648;51.130;13.978;2023-05-10T12:43:20;21.80;70.60
19031;DHT22;9648;51.130;13.978;2023-05-10T12:45:47;21.90;65.80
19031;DHT22;9648;51.130;13.978;2023-05-10T12:48:14;21.80;64.30
19031;DHT22;9648;51.130;13.978;2023-05-10T12:50:41;21.60;64.50
19031;DHT22;9648;51.130;13.978;2023-05-10T12:53:08;21.60;67.90
19031;DHT22;9648;51.130;13.978;2023-05-10T12:55:35;21.50;65.90
19031;DHT22;9648;51.130;13.978;2023-05-10T12:58:02;21.60;67.20
19031;DHT22;9648;51.130;13.978;2023-05-10T13:00:30;21.60;67.00
19031;DHT22;9648;51.130;13.978;2023-05-10T13:02:57;21.50;65.40
19031;DHT22;9648;51.130;13.978;2023-05-10T13:05:23;21.50;66.40
19031;DHT22;9648;51.130;13.978;2023-05-10T13:07:50;21.60;69.60
19031;DHT22;9648;51.130;13.978;2023-05-10T13:10:17;21.90;68.10
19031;DHT22;9648;51.130;13.978;2023-05-10T13:12:44;22.10;62.50
19031;DHT22;9648;51.130;13.978;2023-05-10T13:15:11;22.00;62.80
19031;DHT22;9648;51.130;13.978;2023-05-10T13:17:39;21.90;62.90
19031;DHT22;9648;51.130;13.978;2023-05-10T13:20:08;21.80;62.40
19031;DHT22;9648;51.130;13.978;2023-05-10T13:22:35;21.60;63.70
19031;DHT22;9648;51.130;13.978;2023-05-10T13:25:02;21.60;65.00
19031;DHT22;9648;51.130;13.978;2023-05-10T13:27:29;21.60;65.10
19031;DHT22;9648;51.130;13.978;2023-05-10T13:29:56;21.70;66.80
19031;DHT22;9648;51.130;13.978;2023-05-10T13:32:24;21.70;66.50
19031;DHT22;9648;51.130;13.978;2023-05-10T13:34:53;21.80;67.40
19031;DHT22;9648;51.130;13.978;2023-05-10T13:37:19;21.70;63.70
19031;DHT22;9648;51.130;13.978;2023-05-10T13:39:47;21.60;62.40
19031;DHT22;9648;51.130;13.978;2023-05-10T13:42:14;21.50;63.30
19031;DHT22;9648;51.130;13.978;2023-05-10T13:44:40;21.40;63.10
19031;DHT22;9648;51.130;13.978;2023-05-10T13:47:08;21.30;62.40
19031;DHT22;9648;51.130;13.978;2023-05-10T13:49:35;21.20;63.90
19031;DHT22;9648;51.130;13.978;2023-05-10T13:52:04;21.20;64.10
19031;DHT22;9648;51.130;13.978;2023-05-10T13:54:32;21.10;63.90
19031;DHT22;9648;51.130;13.978;2023-05-10T13:56:59;21.10;65.00
19031;DHT22;9648;51.130;13.978;2023-05-10T13:59:26;21.20;64.40
19031;DHT22;9648;51.130;13.978;2023-05-10T14:01:53;21.20;63.30
19031;DHT22;9648;51.130;13.978;2023-05-10T14:04:20;21.20;65.90
19031;DHT22;9648;51.130;13.978;2023-05-10T14:06:46;21.20;67.80
19031;DHT22;9648;51.130;13.978;2023-05-10T14:09:15;21.20;65.60
19031;DHT22;9648;51.130;13.978;2023-05-10T14:11:42;21.10;68.50
19031;DHT22;9648;51.130;13.978;2023-05-10T14:14:10;21.10;70.20
19031;DHT22;9648;51.130;13.978;2023-05-10T14:16:37;21.10;71.50
19031;DHT22;9648;51.130;13.978;2023-05-10T14:19:04;21.10;72.80
19031;DHT22;9648;51.130;13.978;2023-05-10T14:21:31;21.00;73.90
19031;DHT22;9648;51.130;13.978;2023-05-10T14:23:57;21.00;76.50
19031;DHT22;9648;51.130;13.978;2023-05-10T14:26:26;21.00;74.60
19031;DHT22;9648;51.130;13.978;2023-05-10T14:28:53;21.00;72.40
19031;DHT22;9648;51.130;13.978;2023-05-10T14:31:19;20.80;70.30
19031;DHT22;9648;51.130;13.978;2023-05-10T14:33:46;20.70;70.60
19031;DHT22;9648;51.130;13.978;2023-05-10T14:36:13;20.60;72.60
19031;DHT22;9648;51.130;13.978;2023-05-10T14:38:40;20.50;72.70
19031;DHT22;9648;51.130;13.978;2023-05-10T14:41:07;20.40;71.70
19031;DHT22;9648;51.130;13.978;2023-05-10T14:43:35;20.30;74.10
19031;DHT22;9648;51.130;13.978;2023-05-10T14:46:02;20.30;75.70
19031;DHT22;9648;51.130;13.978;2023-05-10T14:48:29;20.30;73.10
19031;DHT22;9648;51.130;13.978;2023-05-10T14:50:56;20.30;70.40
19031;DHT22;9648;51.130;13.978;2023-05-10T14:53:23;20.30;70.40
19031;DHT22;9648;51.130;13.978;2023-05-10T14:55:50;20.40;72.40
19031;DHT22;9648;51.130;13.978;2023-05-10T14:58:17;20.50;71.30
19031;DHT22;9648;51.130;13.978;2023-05-10T15:00:45;20.60;72.20
19031;DHT22;9648;51.130;13.978;2023-05-10T15:03:12;20.60;72.40
19031;DHT22;9648;51.130;13.978;2023-05-10T15:05:39;20.70;72.70
19031;DHT22;9648;51.130;13.978;2023-05-10T15:08:06;20.80;71.30
19031;DHT22;9648;51.130;13.978;2023-05-10T15:10:32;21.00;71.50
19031;DHT22;9648;51.130;13.978;2023-05-10T15:12:59;21.00;71.40
19031;DHT22;9648;51.130;13.978;2023-05-10T15:15:26;21.10;71.80
19031;DHT22;9648;51.130;13.978;2023-05-10T15:17:54;21.10;70.00
19031;DHT22;9648;51.130;13.978;2023-05-10T15:20:21;21.00;69.50
19031;DHT22;9648;51.130;13.978;2023-05-10T15:22:48;20.90;70.20
19031;DHT22;9648;51.130;13.978;2023-05-10T15:25:15;20.90;72.20
19031;DHT22;9648;51.130;13.978;2023-05-10T15:27:42;20.80;72.70
19031;DHT22;9648;51.130;13.978;2023-05-10T15:30:10;20.60;72.80
19031;DHT22;9648;51.130;13.978;2023-05-10T15:32:37;20.50;74.40
19031;DHT22;9648;51.130;13.978;2023-05-10T15:35:08;20.40;73.40
19031;DHT22;9648;51.130;13.978;2023-05-10T15:37:35;20.40;73.60
19031;DHT22;9648;51.130;13.978;2023-05-10T15:40:03;20.30;72.60
19031;DHT22;9648;51.130;13.978;2023-05-10T15:42:30;20.20;72.00